Results: 2002 Mooloolaba ITU Triathlon Oceania Cup | Elite Women
Mooloolaba, Australia • 21 Apr, 2002
Pos First Name Last Name YOB Country Start
Num
Time Swim T1 Bike T2 Run
1 Nicole Hackett 1978 AUS 02:09:32 00:19:12 00:00:00 01:08:01 00:00:00 00:42:18
2 Melissa Ashton AUS 02:09:37 00:20:15 00:00:00 01:10:26 00:00:00 00:38:54
3 Nicola Spirig 1982 SUI 02:09:45 00:21:33 00:00:00 01:09:02 00:00:00 00:39:08
4 Rebekah Keat 1978 AUS 02:10:50 00:21:20 00:00:00 01:09:32 00:00:00 00:39:58
5 Loretta Harrop 1975 AUS 02:11:18 00:19:13 00:00:00 01:08:01 00:00:00 00:44:03
6 Jenni Erskine AUS 02:12:14 00:20:12 00:00:00 01:10:30 00:00:00 00:41:31
7 Maria Kosztovits AUS 02:12:47 00:21:35 00:00:00 01:09:06 00:00:00 00:42:06
8 Josie Loane AUS 02:14:34 00:19:17 00:00:00 01:11:22 00:00:00 00:43:55
9 Megan Hall 1974 RSA 02:15:49 00:20:16 00:00:00 01:10:58 00:00:00 00:44:34
10 Annabel Luxford 1982 AUS 02:16:15 00:20:18 00:00:00 01:10:19 00:00:00 00:45:37
11 Samantha Warriner 1971 NZL 02:17:51 00:21:38 00:00:00 01:14:00 00:00:00 00:42:12
12 Mirinda Carfrae 1981 AUS 02:18:01 00:22:55 00:00:00 01:15:00 00:00:00 00:40:05
13 Melissa Trims AUS 02:23:14 00:20:18 00:00:00 01:10:30 00:00:00 00:52:24
14 Tracy Ellingham AUS 02:23:36 00:20:23 00:00:00 01:16:53 00:00:00 00:46:19
15 Vanessa Palmer COK 02:23:58 00:21:30 00:00:00 01:17:32 00:00:00 00:44:56
DNF Shanelle Barrett 1978 NZL 00:00:00 00:21:25 00:00:00 00:00:00 00:00:00 00:00:00
DNF Lenka Brunova 1976 CZE 00:00:00 00:23:04 00:00:00 00:00:00 00:00:00 00:00:00
DNF Emma Carney 1971 AUS 00:00:00 00:21:31 00:00:00 00:00:00 00:00:00 00:00:00
DNF Jenny Cooper NZL 00:00:00 00:21:32 00:00:00 00:00:00 00:00:00 00:00:00
DNF Natalie Dellow AUS 00:00:00 00:21:31 00:00:00 00:00:00 00:00:00 00:00:00
DNF Helena Edmonston AUS 00:00:00 00:21:26 00:00:00 00:00:00 00:00:00 00:00:00
DNF Kiyomi Niwata 1970 JPN 00:00:00 00:21:22 00:00:00 00:00:00 00:00:00 00:00:00
DNF Katie Ross AUS 00:00:00 00:21:25 00:00:00 00:00:00 00:00:00 00:00:00
DNF Debbie Tanner 1982 NZL 00:00:00 00:21:15 00:00:00 00:00:00 00:00:00 00:00:00
DNF Pip Taylor 1980 AUS 00:00:00 00:20:04 00:00:00 00:00:00 00:00:00 00:00:00
DNF Alexandra Templeton 1984 AUS 00:00:00 00:20:17 00:00:00 00:00:00 00:00:00 00:00:00
DNF Melissa Vandewater 1978 AUS 00:00:00 00:22:55 00:00:00 00:00:00 00:00:00 00:00:00
DNF Fiona Warneke AUS 00:00:00 00:21:26 00:00:00 00:00:00 00:00:00 00:00:00
DNF Kirsty Whiting NZL 00:00:00 00:21:34 00:00:00 00:00:00 00:00:00 00:00:00
DNF Leanda Cave 1978 GBR 00:00:00 00:00:00 00:00:00 00:00:00 00:00:00 00:00:00
DNF Emma Snowsill 1981 AUS 00:00:00 00:00:00 00:00:00 00:00:00 00:00:00 00:00:00